createdAt,value
2023-04-13T00:01:16.483Z,99386.75
2023-04-13T00:03:46.192Z,99398.13
2023-04-13T00:06:15.063Z,99382.34
2023-04-13T00:08:45.343Z,99370.53
2023-04-13T00:11:14.121Z,99381.41
2023-04-13T00:13:47.750Z,99394.09
2023-04-13T00:16:18.043Z,99379.34
2023-04-13T00:18:47.149Z,99378.34
2023-04-13T00:21:17.329Z,99381.34
2023-04-13T00:23:47.444Z,99382.53
2023-04-13T00:26:16.795Z,99383.00
2023-04-13T00:28:47.129Z,99390.97
2023-04-13T00:31:16.495Z,99384.34
2023-04-13T00:33:46.719Z,99382.97
2023-04-13T00:36:16.852Z,99384.81
2023-04-13T00:38:46.874Z,99400.63
2023-04-13T00:41:19.438Z,99403.38
2023-04-13T00:43:49.485Z,99415.75
2023-04-13T00:46:19.565Z,99423.38
2023-04-13T00:48:48.763Z,99427.31
2023-04-13T00:51:18.402Z,99426.84
2023-04-13T00:53:49.806Z,99435.63
2023-04-13T00:56:23.108Z,99444.56
2023-04-13T00:58:56.637Z,99447.66
2023-04-13T01:01:26.800Z,99455.59
2023-04-13T01:03:57.335Z,99456.91
2023-04-13T01:06:45.464Z,99469.53
2023-04-13T01:09:31.094Z,99465.00
2023-04-13T01:12:39.469Z,99477.47
2023-04-13T01:15:16.472Z,99478.13
2023-04-13T01:18:05.387Z,99463.41
2023-04-13T01:20:45.704Z,99479.59
2023-04-13T01:24:17.872Z,99498.56
2023-04-13T01:27:13.269Z,99484.31
2023-04-13T01:29:47.160Z,99496.28
2023-04-13T01:32:18.516Z,99516.25
2023-04-13T01:34:50.267Z,99524.31
2023-04-13T01:37:20.895Z,99509.09
2023-04-13T01:39:51.000Z,99506.16
2023-04-13T01:42:21.140Z,99512.31
2023-04-13T01:44:51.455Z,99527.41
2023-04-13T01:47:25.954Z,99531.13
2023-04-13T01:50:19.569Z,99528.53
2023-04-13T01:52:55.459Z,99538.41
2023-04-13T01:55:26.597Z,99539.56
2023-04-13T01:58:02.127Z,99547.34
2023-04-13T02:00:41.096Z,99544.41
2023-04-13T02:03:13.725Z,99553.81
2023-04-13T02:05:43.934Z,99545.06
2023-04-13T02:08:14.545Z,99549.94
2023-04-13T02:10:46.456Z,99553.47
2023-04-13T02:13:16.558Z,99550.56
2023-04-13T02:15:47.235Z,99558.19
2023-04-13T02:18:17.632Z,99551.53
2023-04-13T02:20:47.718Z,99547.66
2023-04-13T02:23:18.103Z,99552.69
2023-04-13T02:25:48.413Z,99556.72
2023-04-13T02:28:18.902Z,99551.69
2023-04-13T02:30:49.153Z,99553.78
2023-04-13T02:33:21.611Z,99546.50
2023-04-13T02:35:52.173Z,99554.91
2023-04-13T02:38:22.258Z,99559.25
2023-04-13T02:41:01.532Z,99560.56
2023-04-13T02:43:31.794Z,99558.59
2023-04-13T02:46:01.996Z,99566.22
2023-04-13T02:48:32.344Z,99564.56
2023-04-13T02:51:02.525Z,99567.47
2023-04-13T02:53:32.693Z,99568.47
2023-04-13T02:56:02.855Z,99564.06
2023-04-13T02:58:33.006Z,99561.94
2023-04-13T03:01:01.566Z,99567.28
2023-04-13T03:03:30.724Z,99573.53
2023-04-13T03:05:58.846Z,99574.66
2023-04-13T03:08:27.485Z,99578.69
2023-04-13T03:10:55.278Z,99579.78
2023-04-13T03:13:23.519Z,99583.78
2023-04-13T03:15:52.999Z,99580.34
2023-04-13T03:18:20.388Z,99583.25
2023-04-13T03:20:48.892Z,99589.38
2023-04-13T03:23:17.555Z,99596.31
2023-04-13T03:25:46.079Z,99579.47
2023-04-13T03:28:14.193Z,99583.66
2023-04-13T03:30:42.494Z,99593.81
2023-04-13T03:33:11.093Z,99597.69
2023-04-13T03:35:39.449Z,99582.31
2023-04-13T03:38:07.934Z,99579.56
2023-04-13T03:40:36.276Z,99585.41
2023-04-13T03:43:04.825Z,99586.50
2023-04-13T03:45:33.622Z,99584.59
2023-04-13T03:48:01.622Z,99586.00
2023-04-13T03:50:29.914Z,99586.00
2023-04-13T03:52:58.355Z,99594.59
2023-04-13T03:55:27.310Z,99596.50
2023-04-13T03:57:57.640Z,99598.13
2023-04-13T04:00:28.168Z,99605.59
2023-04-13T04:02:58.321Z,99613.81
2023-04-13T04:05:28.453Z,99620.75
2023-04-13T04:07:58.581Z,99614.94
2023-04-13T04:10:29.070Z,99626.06
2023-04-13T04:12:59.232Z,99625.06
2023-04-13T04:15:29.466Z,99633.63
2023-04-13T04:18:00.503Z,99628.13
2023-04-13T04:20:31.200Z,99633.63
2023-04-13T04:23:01.512Z,99638.59
2023-04-13T04:25:33.619Z,99637.00
2023-04-13T04:28:04.636Z,99651.84
2023-04-13T04:30:35.273Z,99646.66
2023-04-13T04:33:05.486Z,99654.59
2023-04-13T04:35:34.137Z,99662.03
2023-04-13T04:38:04.551Z,99661.72
2023-04-13T04:40:35.971Z,99668.91
2023-04-13T04:43:06.225Z,99656.97
2023-04-13T04:45:38.625Z,99650.66
2023-04-13T04:48:11.933Z,99647.63
2023-04-13T04:50:45.110Z,99651.97
2023-04-13T04:53:15.198Z,99650.88
2023-04-13T04:55:46.626Z,99647.47
2023-04-13T04:58:17.114Z,99652.66
2023-04-13T05:00:48.119Z,99647.16
2023-04-13T05:03:18.490Z,99646.16
2023-04-13T05:05:48.772Z,99641.47
2023-04-13T05:08:19.027Z,99641.19
2023-04-13T05:10:49.446Z,99642.47
2023-04-13T05:13:19.682Z,99648.69
2023-04-13T05:15:50.042Z,99673.16
2023-04-13T05:18:18.641Z,99668.72
2023-04-13T05:20:49.693Z,99672.78
2023-04-13T05:23:18.331Z,99670.59
2023-04-13T05:25:46.741Z,99690.69
2023-04-13T05:28:15.190Z,99676.44
2023-04-13T05:30:43.607Z,99668.53
2023-04-13T05:33:12.409Z,99672.63
2023-04-13T05:35:40.470Z,99671.84
2023-04-13T05:38:09.473Z,99668.47
2023-04-13T05:40:40.027Z,99678.84
2023-04-13T05:43:10.413Z,99688.41
2023-04-13T05:45:40.806Z,99693.16
2023-04-13T05:48:11.013Z,99692.66
2023-04-13T05:50:41.147Z,99699.00
2023-04-13T05:53:11.375Z,99700.31
2023-04-13T05:55:45.682Z,99704.59
2023-04-13T05:58:19.337Z,99706.25
2023-04-13T06:00:49.718Z,99716.28
2023-04-13T06:03:20.860Z,99727.50
2023-04-13T06:05:53.233Z,99733.53
2023-04-13T06:08:23.949Z,99737.09
2023-04-13T06:10:54.086Z,99734.03
2023-04-13T06:13:24.678Z,99737.69
2023-04-13T06:15:55.139Z,99740.00
2023-04-13T06:18:29.766Z,99737.56
2023-04-13T06:21:03.096Z,99735.94
2023-04-13T06:23:33.209Z,99741.28
2023-04-13T06:26:05.767Z,99744.84
2023-04-13T06:28:36.908Z,99751.81
2023-04-13T06:31:07.659Z,99751.69
2023-04-13T06:33:35.459Z,99763.22
2023-04-13T06:36:06.573Z,99764.50
2023-04-13T06:38:35.260Z,99766.28
2023-04-13T06:41:04.790Z,99773.94
2023-04-13T06:43:32.156Z,99780.22
2023-04-13T06:46:02.474Z,99783.81
2023-04-13T06:48:33.277Z,99784.31
2023-04-13T06:51:03.474Z,99795.66
2023-04-13T06:53:33.612Z,99810.09
2023-04-13T06:56:06.930Z,99802.66
2023-04-13T06:58:38.020Z,99807.84
2023-04-13T07:01:08.711Z,99810.47
2023-04-13T07:03:39.121Z,99817.41
2023-04-13T07:06:10.724Z,99813.22
2023-04-13T07:08:40.849Z,99802.81
2023-04-13T07:11:11.736Z,99805.09
2023-04-13T07:13:45.094Z,99797.97
2023-04-13T07:16:16.233Z,99803.31
2023-04-13T07:18:48.175Z,99806.38
2023-04-13T07:21:21.867Z,99813.84
2023-04-13T07:23:51.977Z,99820.84
2023-04-13T07:26:22.076Z,99815.50
2023-04-13T07:28:52.228Z,99808.00
2023-04-13T07:31:40.970Z,99809.41
2023-04-13T07:34:12.401Z,99812.81
2023-04-13T07:36:46.278Z,99818.81
2023-04-13T07:39:13.921Z,99832.94
2023-04-13T07:41:49.260Z,99838.09
2023-04-13T07:44:19.393Z,99821.13
2023-04-13T07:46:49.613Z,99823.47
2023-04-13T07:49:19.797Z,99833.09
2023-04-13T07:51:54.527Z,99832.19
2023-04-13T07:54:24.612Z,99836.22
2023-04-13T07:56:56.551Z,99835.38
2023-04-13T07:59:26.736Z,99833.69
2023-04-13T08:01:59.903Z,99843.25
2023-04-13T08:04:30.464Z,99841.00
2023-04-13T08:07:07.441Z,99842.56
2023-04-13T08:09:42.475Z,99847.28
2023-04-13T08:12:17.536Z,99851.81
2023-04-13T08:14:47.609Z,99857.19
2023-04-13T08:17:17.809Z,99861.66
2023-04-13T08:19:47.959Z,99864.94
2023-04-13T08:22:18.773Z,99863.50
2023-04-13T08:24:48.845Z,99872.78
2023-04-13T08:27:17.315Z,99874.72
2023-04-13T08:29:46.735Z,99886.22
2023-04-13T08:32:14.166Z,99883.13
2023-04-13T08:34:42.669Z,99890.09
2023-04-13T08:37:12.953Z,99880.56
2023-04-13T08:39:42.390Z,99882.97
2023-04-13T08:42:19.285Z,99880.72
2023-04-13T08:44:57.404Z,99877.22
2023-04-13T08:47:29.703Z,99881.75
2023-04-13T08:50:02.831Z,99882.69
2023-04-13T08:52:36.868Z,99878.66
2023-04-13T08:55:07.487Z,99889.56
2023-04-13T08:57:39.332Z,99891.06
2023-04-13T09:00:15.641Z,99884.31
2023-04-13T09:03:03.013Z,99881.97
2023-04-13T09:05:41.675Z,99885.59
2023-04-13T09:08:14.316Z,99887.28
2023-04-13T09:10:44.641Z,99886.41
2023-04-13T09:13:14.828Z,99885.03
2023-04-13T09:15:47.513Z,99890.00
2023-04-13T09:18:18.060Z,99892.22
2023-04-13T09:21:00.662Z,99890.69
2023-04-13T09:23:30.854Z,99894.25
2023-04-13T09:26:09.718Z,99905.06
2023-04-13T09:28:54.855Z,99915.38
2023-04-13T09:31:26.307Z,99913.63
2023-04-13T09:33:56.574Z,99913.25
2023-04-13T09:36:29.611Z,99906.97
2023-04-13T09:38:58.911Z,99907.38
2023-04-13T09:41:39.301Z,99908.38
2023-04-13T09:44:24.637Z,99899.56
2023-04-13T09:47:06.267Z,99898.47
2023-04-13T09:49:43.904Z,99901.94
2023-04-13T09:52:25.234Z,99894.94
2023-04-13T09:54:58.984Z,99901.53
2023-04-13T09:57:32.603Z,99902.88
2023-04-13T10:00:01.887Z,99909.94
2023-04-13T10:02:32.554Z,99906.38
2023-04-13T10:05:02.997Z,99906.72
2023-04-13T10:07:37.230Z,99905.44
2023-04-13T10:10:08.770Z,99905.13
2023-04-13T10:12:56.561Z,99909.50
2023-04-13T10:15:58.616Z,99912.38
2023-04-13T10:21:55.869Z,99917.78
2023-04-13T10:24:29.012Z,99921.53
2023-04-13T10:27:01.951Z,99933.31
2023-04-13T10:29:34.267Z,99912.75
2023-04-13T10:32:05.364Z,99924.44
2023-04-13T10:34:38.354Z,99918.50
2023-04-13T10:37:21.902Z,99923.22
2023-04-13T10:40:14.646Z,99919.31
2023-04-13T10:45:28.670Z,99927.28
2023-04-13T10:47:58.856Z,99933.81
2023-04-13T10:50:28.017Z,99930.09
2023-04-13T10:53:07.873Z,99926.31
2023-04-13T10:55:38.059Z,99936.72
2023-04-13T10:58:17.610Z,99928.94
2023-04-13T11:00:51.047Z,99939.41
2023-04-13T11:03:21.916Z,99940.09
2023-04-13T11:05:59.724Z,99942.03
2023-04-13T11:08:28.934Z,99954.31
2023-04-13T11:10:59.121Z,99940.66
2023-04-13T11:13:29.960Z,99950.59
2023-04-13T11:16:07.734Z,99948.31
2023-04-13T11:18:37.288Z,99951.91
2023-04-13T11:21:14.397Z,99957.91
2023-04-13T11:23:55.518Z,99960.47
2023-04-13T11:26:34.425Z,99959.75
2023-04-13T11:29:05.387Z,99960.97
2023-04-13T11:31:42.476Z,99954.63
2023-04-13T11:34:14.094Z,99965.28
2023-04-13T11:36:49.057Z,99964.81
2023-04-13T11:39:19.963Z,99972.94
2023-04-13T11:41:51.211Z,99957.47
2023-04-13T11:44:20.010Z,99970.38
2023-04-13T11:46:53.873Z,99961.41
2023-04-13T11:49:24.452Z,99969.75
2023-04-13T11:51:55.629Z,99962.25
2023-04-13T11:54:27.398Z,99959.31
2023-04-13T11:56:56.060Z,99963.56
2023-04-13T11:59:28.008Z,99965.78
2023-04-13T12:02:02.922Z,99974.22
2023-04-13T12:04:43.703Z,99968.44
2023-04-13T12:07:16.779Z,99963.13
2023-04-13T12:15:15.420Z,99957.28
2023-04-13T12:17:57.753Z,99962.34
2023-04-13T12:20:44.381Z,99959.44
2023-04-13T12:23:23.579Z,99980.31
2023-04-13T12:26:41.208Z,99977.13
2023-04-13T12:29:04.287Z,99972.88
2023-04-13T12:31:39.954Z,99966.72
2023-04-13T12:34:10.153Z,99964.34
2023-04-13T12:36:40.400Z,99959.66
2023-04-13T12:39:09.071Z,99959.81
2023-04-13T12:41:36.167Z,99959.03
2023-04-13T12:44:06.337Z,99973.91
2023-04-13T12:46:37.226Z,99971.38
2023-04-13T12:49:06.975Z,99973.16
2023-04-13T12:51:37.155Z,99972.44
2023-04-13T12:54:13.265Z,99965.69
2023-04-13T12:56:42.562Z,99967.66
2023-04-13T12:59:12.895Z,99970.66
2023-04-13T13:01:41.059Z,99965.34
2023-04-13T13:04:09.635Z,99970.22
2023-04-13T13:06:38.227Z,99972.88
2023-04-13T13:09:07.686Z,99971.06
2023-04-13T13:11:37.870Z,99971.59
2023-04-13T13:14:06.731Z,99969.66
2023-04-13T13:16:38.093Z,99958.69
2023-04-13T13:19:08.764Z,99967.13
2023-04-13T13:21:38.926Z,99967.84
2023-04-13T13:24:09.212Z,99956.94
2023-04-13T13:26:58.673Z,99960.38
2023-04-13T13:29:33.315Z,99959.75
2023-04-13T13:32:04.518Z,99962.84
2023-04-13T13:34:34.792Z,99970.25
2023-04-13T13:37:03.389Z,99966.53
2023-04-13T13:39:32.363Z,99976.16
2023-04-13T13:42:00.043Z,99972.16
2023-04-13T13:44:28.370Z,99980.13
2023-04-13T13:46:56.790Z,99972.78
2023-04-13T13:49:25.509Z,99977.56
2023-04-13T13:51:53.666Z,99970.28
2023-04-13T13:54:22.903Z,99970.72
2023-04-13T13:56:50.436Z,99968.00
2023-04-13T13:59:19.292Z,99971.16
2023-04-13T14:01:47.394Z,99972.03
2023-04-13T14:04:16.080Z,99973.19
2023-04-13T14:06:44.131Z,99990.25
2023-04-13T14:09:12.589Z,99993.88
2023-04-13T14:11:41.074Z,99987.09
2023-04-13T14:14:20.414Z,99999.75
2023-04-13T14:16:52.166Z,99985.16
2023-04-13T14:19:22.340Z,99983.97
2023-04-13T14:21:56.705Z,99980.56
2023-04-13T14:24:27.373Z,99987.72
2023-04-13T14:26:55.289Z,99979.28
2023-04-13T14:29:23.659Z,99980.94
2023-04-13T14:31:53.011Z,99992.31
2023-04-13T14:34:21.069Z,99993.44
2023-04-13T14:36:51.051Z,100004.34
2023-04-13T14:39:20.467Z,99994.06
2023-04-13T14:41:48.790Z,99986.91
2023-04-13T14:44:17.420Z,99983.91
2023-04-13T14:46:45.790Z,99985.16
2023-04-13T14:49:16.852Z,99988.41
2023-04-13T14:51:46.978Z,99992.31
2023-04-13T14:54:17.117Z,100001.34
2023-04-13T14:56:48.058Z,100007.44
2023-04-13T14:59:18.178Z,99996.53
2023-04-13T15:01:48.795Z,99997.16
2023-04-13T15:04:19.913Z,100004.25
2023-04-13T15:06:53.834Z,99999.47
2023-04-13T15:09:24.180Z,100004.97
2023-04-13T15:11:54.363Z,100008.00
2023-04-13T15:14:24.466Z,100011.78
2023-04-13T15:16:54.606Z,100016.91
2023-04-13T15:19:24.757Z,100022.75
2023-04-13T15:21:54.856Z,100024.25
2023-04-13T15:24:24.996Z,100026.81
2023-04-13T15:26:55.530Z,100024.75
2023-04-13T15:29:26.928Z,100025.78
2023-04-13T15:32:00.354Z,100032.69
2023-04-13T15:34:30.813Z,100034.84
2023-04-13T15:37:00.971Z,100029.41
2023-04-13T15:39:31.095Z,100035.19
2023-04-13T15:42:02.422Z,100034.88
2023-04-13T15:44:32.516Z,100036.47
2023-04-13T15:47:03.281Z,100039.75
2023-04-13T15:49:33.511Z,100038.41
2023-04-13T15:52:04.154Z,100050.44
2023-04-13T15:54:34.391Z,100053.06
2023-04-13T15:57:04.634Z,100056.75
2023-04-13T15:59:34.987Z,100062.16
2023-04-13T16:02:05.198Z,100069.16
2023-04-13T16:04:35.628Z,100070.31
2023-04-13T16:07:13.491Z,100068.28
2023-04-13T16:09:45.025Z,100058.22
2023-04-13T16:12:20.286Z,100060.53
2023-04-13T16:14:50.428Z,100062.06
2023-04-13T16:17:31.115Z,100068.78
2023-04-13T16:20:14.514Z,100053.41
2023-04-13T16:22:49.248Z,100070.47
2023-04-13T16:25:20.490Z,100077.31
2023-04-13T16:27:50.797Z,100082.97
2023-04-13T16:30:21.264Z,100084.31
2023-04-13T16:32:51.430Z,100078.63
2023-04-13T16:35:21.608Z,100073.00
2023-04-13T16:37:51.746Z,100075.50
2023-04-13T16:40:22.173Z,100082.56
2023-04-13T16:42:52.293Z,100085.97
2023-04-13T16:45:21.880Z,100091.19
2023-04-13T16:47:50.150Z,100088.63
2023-04-13T16:50:17.524Z,100097.09
2023-04-13T16:52:46.156Z,100086.69
2023-04-13T16:55:15.160Z,100091.88
2023-04-13T16:57:48.249Z,100095.50
2023-04-13T17:00:18.342Z,100101.59
2023-04-13T17:02:48.685Z,100102.84
2023-04-13T17:05:18.975Z,100108.19
2023-04-13T17:07:49.097Z,100102.47
2023-04-13T17:10:19.281Z,100110.09
2023-04-13T17:12:49.491Z,100110.34
2023-04-13T17:15:20.418Z,100111.66
2023-04-13T17:17:50.559Z,100112.75
2023-04-13T17:20:23.991Z,100116.53
2023-04-13T17:22:54.725Z,100130.50
2023-04-13T17:25:24.944Z,100119.78
2023-04-13T17:27:55.056Z,100126.53
2023-04-13T17:30:25.137Z,100126.19
2023-04-13T17:32:55.330Z,100123.00
2023-04-13T17:35:25.423Z,100130.53
2023-04-13T17:37:55.639Z,100122.88
2023-04-13T17:40:26.324Z,100117.22
2023-04-13T17:42:57.207Z,100123.13
2023-04-13T17:45:29.926Z,100124.16
2023-04-13T17:48:00.238Z,100117.19
2023-04-13T17:50:35.355Z,100107.75
2023-04-13T17:53:08.460Z,100110.91
2023-04-13T17:55:39.920Z,100118.91
2023-04-13T17:58:12.117Z,100120.22
2023-04-13T18:00:42.251Z,100123.81
2023-04-13T18:03:12.971Z,100102.88
2023-04-13T18:05:46.277Z,100113.28
2023-04-13T18:08:14.747Z,100111.06
2023-04-13T18:10:43.087Z,100110.16
2023-04-13T18:13:11.553Z,100117.41
2023-04-13T18:15:39.919Z,100118.78
2023-04-13T18:18:08.426Z,100116.53
2023-04-13T18:20:36.712Z,100127.81
2023-04-13T18:23:11.210Z,100124.91
2023-04-13T18:25:44.128Z,100127.78
2023-04-13T18:28:17.764Z,100131.88
2023-04-13T18:30:48.330Z,100142.44
2023-04-13T18:33:18.492Z,100140.34
2023-04-13T18:35:50.573Z,100147.31
2023-04-13T18:38:24.002Z,100151.22
2023-04-13T18:40:56.703Z,100148.44
2023-04-13T18:43:26.803Z,100161.75
2023-04-13T18:45:56.937Z,100166.09
2023-04-13T18:48:28.642Z,100181.50
2023-04-13T18:50:58.525Z,100192.22
2023-04-13T18:53:27.069Z,100193.78
2023-04-13T18:55:57.430Z,100210.03
2023-04-13T18:58:27.294Z,100212.44
2023-04-13T19:00:56.095Z,100221.63
2023-04-13T19:03:24.541Z,100234.94
2023-04-13T19:05:52.201Z,100249.59
2023-04-13T19:08:20.812Z,100244.88
2023-04-13T19:10:49.026Z,100244.56
2023-04-13T19:13:17.533Z,100252.84
2023-04-13T19:15:45.911Z,100249.59
2023-04-13T19:18:14.390Z,100255.72
2023-04-13T19:20:42.683Z,100258.28
2023-04-13T19:23:11.392Z,100262.63
2023-04-13T19:25:39.765Z,100273.28
2023-04-13T19:28:08.158Z,100280.25
2023-04-13T19:30:36.460Z,100275.97
2023-04-13T19:33:11.198Z,100281.63
2023-04-13T19:35:41.698Z,100286.16
2023-04-13T19:38:11.905Z,100291.47
2023-04-13T19:40:42.129Z,100293.53
2023-04-13T19:43:12.245Z,100295.38
2023-04-13T19:45:42.743Z,100288.84
2023-04-13T19:48:13.006Z,100293.38
2023-04-13T19:50:45.599Z,100292.69
2023-04-13T19:53:16.033Z,100299.72
2023-04-13T19:55:46.370Z,100299.84
2023-04-13T19:58:14.574Z,100295.25
2023-04-13T20:00:47.365Z,100289.03
2023-04-13T20:03:20.608Z,100297.09
2023-04-13T20:05:50.900Z,100290.03
2023-04-13T20:08:21.174Z,100285.75
2023-04-13T20:10:51.584Z,100284.22
2023-04-13T20:13:21.790Z,100277.16
2023-04-13T20:15:53.875Z,100278.72
2023-04-13T20:18:24.195Z,100278.00
2023-04-13T20:20:57.066Z,100279.53
2023-04-13T20:23:32.516Z,100284.09
2023-04-13T20:26:02.755Z,100266.56
2023-04-13T20:28:36.466Z,100270.94
2023-04-13T20:31:07.087Z,100264.41
2023-04-13T20:33:37.227Z,100259.91
2023-04-13T20:36:07.533Z,100256.75
2023-04-13T20:38:38.638Z,100258.47
2023-04-13T20:41:10.792Z,100254.97
2023-04-13T20:43:42.236Z,100252.53
2023-04-13T20:46:12.367Z,100248.44
2023-04-13T20:51:23.306Z,100245.88
2023-04-13T20:53:52.760Z,100242.41
2023-04-13T20:56:23.906Z,100239.44
2023-04-13T20:58:56.271Z,100241.16
2023-04-13T21:01:26.515Z,100239.03
2023-04-13T21:03:56.861Z,100239.91
2023-04-13T21:06:29.264Z,100243.78
2023-04-13T21:08:59.593Z,100243.41
2023-04-13T21:11:29.805Z,100243.28
2023-04-13T21:14:00.301Z,100244.75
2023-04-13T21:16:30.776Z,100241.59
2023-04-13T21:19:00.952Z,100237.28
2023-04-13T21:21:32.954Z,100237.38
2023-04-13T21:24:04.311Z,100239.91
2023-04-13T21:26:34.478Z,100235.28
2023-04-13T21:29:04.647Z,100231.50
2023-04-13T21:31:35.209Z,100226.91
2023-04-13T21:34:05.522Z,100225.88
2023-04-13T21:39:08.858Z,100225.13
2023-04-13T21:41:41.654Z,100219.38
2023-04-13T21:44:26.038Z,100218.06
2023-04-13T21:46:59.287Z,100223.31
2023-04-13T21:49:29.520Z,100228.63
2023-04-13T21:51:57.847Z,100226.44
2023-04-13T21:54:26.237Z,100230.09
2023-04-13T21:56:54.761Z,100242.50
2023-04-13T21:59:27.323Z,100231.28
2023-04-13T22:01:55.332Z,100242.06
2023-04-13T22:04:23.222Z,100240.41
2023-04-13T22:06:51.531Z,100243.75
2023-04-13T22:09:20.246Z,100255.31
2023-04-13T22:11:48.488Z,100260.56
2023-04-13T22:14:16.588Z,100255.69
2023-04-13T22:16:45.909Z,100255.44
2023-04-13T22:19:17.379Z,100262.63
2023-04-13T22:21:47.570Z,100275.84
2023-04-13T22:24:17.717Z,100275.56
2023-04-13T22:26:51.420Z,100268.06
2023-04-13T22:29:21.859Z,100267.59
2023-04-13T22:31:52.101Z,100267.66
2023-04-13T22:34:22.881Z,100268.56
2023-04-13T22:36:53.785Z,100264.75
2023-04-13T22:39:23.989Z,100261.19
2023-04-13T22:41:54.110Z,100250.22
2023-04-13T22:44:24.355Z,100255.69
2023-04-13T22:46:55.206Z,100254.06
2023-04-13T22:49:32.253Z,100254.06
2023-04-13T22:52:02.409Z,100245.81
2023-04-13T22:54:32.637Z,100249.09
2023-04-13T22:57:05.100Z,100258.66
2023-04-13T22:59:38.785Z,100256.16
2023-04-13T23:02:13.524Z,100268.47
2023-04-13T23:04:47.115Z,100265.44
2023-04-13T23:07:17.317Z,100262.94
2023-04-13T23:09:49.044Z,100259.06
2023-04-13T23:12:21.829Z,100247.81
2023-04-13T23:14:55.224Z,100244.78
2023-04-13T23:17:25.621Z,100230.19
2023-04-13T23:19:56.545Z,100222.78
2023-04-13T23:22:28.263Z,100227.44
2023-04-13T23:25:03.028Z,100225.22
2023-04-13T23:27:33.173Z,100225.22
2023-04-13T23:30:05.912Z,100215.88
2023-04-13T23:32:35.666Z,100220.25
2023-04-13T23:35:13.513Z,100217.22
2023-04-13T23:37:45.506Z,100219.69
2023-04-13T23:40:17.510Z,100218.28
2023-04-13T23:42:47.715Z,100222.34
2023-04-13T23:45:18.190Z,100231.13
2023-04-13T23:47:46.582Z,100234.09
2023-04-13T23:50:17.981Z,100223.34
2023-04-13T23:52:46.335Z,100222.75
2023-04-13T23:55:17.366Z,100222.97
2023-04-13T23:57:47.469Z,100226.75
